createdAt,value
2022-10-05T00:01:25.656Z,2.65
2022-10-05T00:03:55.146Z,2.60
2022-10-05T00:06:24.260Z,2.33
2022-10-05T00:08:52.668Z,2.78
2022-10-05T00:11:21.008Z,2.58
2022-10-05T00:13:49.703Z,2.63
2022-10-05T00:16:21.546Z,2.60
2022-10-05T00:18:52.282Z,2.42
2022-10-05T00:21:23.962Z,2.75
2022-10-05T00:23:53.390Z,2.25
2022-10-05T00:26:23.835Z,2.20
2022-10-05T00:28:52.875Z,2.80
2022-10-05T00:31:25.340Z,2.53
2022-10-05T00:33:55.084Z,2.35
2022-10-05T00:36:23.587Z,2.28
2022-10-05T00:38:52.063Z,2.33
2022-10-05T00:41:26.304Z,2.05
2022-10-05T00:44:17.121Z,2.10
2022-10-05T00:46:57.139Z,2.25
2022-10-05T00:49:50.844Z,2.10
2022-10-05T00:52:32.531Z,2.65
2022-10-05T00:55:09.822Z,2.10
2022-10-05T00:57:51.422Z,2.25
2022-10-05T01:00:26.117Z,2.20
2022-10-05T01:03:03.159Z,2.53
2022-10-05T01:05:50.637Z,2.25
2022-10-05T01:08:31.913Z,2.78
2022-10-05T01:11:10.482Z,2.30
2022-10-05T01:13:51.025Z,2.30
2022-10-05T01:16:26.885Z,3.75
2022-10-05T01:19:03.084Z,3.13
2022-10-05T01:21:37.767Z,2.67
2022-10-05T01:24:41.842Z,2.70
2022-10-05T01:27:44.706Z,2.75
2022-10-05T01:30:15.537Z,2.60
2022-10-05T01:32:49.794Z,2.30
2022-10-05T01:35:34.823Z,2.47
2022-10-05T01:38:21.492Z,2.70
2022-10-05T01:41:00.275Z,2.28
2022-10-05T01:43:37.300Z,2.50
2022-10-05T01:46:18.046Z,2.50
2022-10-05T01:48:56.691Z,2.20
2022-10-05T01:51:38.019Z,2.15
2022-10-05T01:54:20.314Z,2.10
2022-10-05T01:56:58.602Z,2.30
2022-10-05T01:59:37.769Z,2.17
2022-10-05T02:02:10.990Z,2.10
2022-10-05T02:05:01.447Z,2.13
2022-10-05T02:07:35.828Z,2.05
2022-10-05T02:10:11.528Z,2.45
2022-10-05T02:12:40.210Z,2.30
2022-10-05T02:15:16.207Z,2.42
2022-10-05T02:17:49.670Z,2.60
2022-10-05T02:20:23.972Z,2.33
2022-10-05T02:22:55.949Z,2.10
2022-10-05T02:25:29.138Z,2.58
2022-10-05T02:28:02.100Z,1.77
2022-10-05T02:30:35.394Z,2.42
2022-10-05T02:33:08.140Z,2.10
2022-10-05T02:35:36.907Z,2.35
2022-10-05T02:38:13.367Z,2.30
2022-10-05T02:40:52.928Z,2.83
2022-10-05T02:43:31.595Z,2.55
2022-10-05T02:46:15.014Z,2.63
2022-10-05T02:48:51.218Z,2.55
2022-10-05T02:51:25.783Z,2.67
2022-10-05T02:54:09.551Z,2.90
2022-10-05T02:56:47.548Z,3.15
2022-10-05T02:59:23.530Z,2.95
2022-10-05T03:01:58.458Z,3.15
2022-10-05T03:04:38.951Z,2.90
2022-10-05T03:07:15.724Z,3.10
2022-10-05T03:09:50.724Z,3.00
2022-10-05T03:12:36.353Z,3.42
2022-10-05T03:15:18.278Z,3.25
2022-10-05T03:17:56.100Z,3.80
2022-10-05T03:20:37.506Z,3.17
2022-10-05T03:23:11.154Z,2.90
2022-10-05T03:26:03.902Z,3.40
2022-10-05T03:28:41.523Z,3.50
2022-10-05T03:31:19.945Z,3.25
2022-10-05T03:33:57.399Z,3.50
2022-10-05T03:36:31.607Z,3.10
2022-10-05T03:39:10.757Z,3.55
2022-10-05T03:41:49.159Z,3.67
2022-10-05T03:44:38.299Z,3.70
2022-10-05T03:47:16.495Z,3.45
2022-10-05T03:50:15.108Z,3.40
2022-10-05T03:52:49.128Z,3.95
2022-10-05T03:55:25.123Z,4.10
2022-10-05T03:57:57.951Z,3.78
2022-10-05T04:00:27.763Z,3.70
2022-10-05T04:03:00.804Z,4.10
2022-10-05T04:05:33.639Z,3.83
2022-10-05T04:08:08.469Z,3.75
2022-10-05T04:10:44.750Z,3.85
2022-10-05T04:13:18.407Z,3.95
2022-10-05T04:15:54.336Z,3.30
2022-10-05T04:18:28.266Z,3.40
2022-10-05T04:21:03.401Z,3.30
2022-10-05T04:23:41.018Z,3.58
2022-10-05T04:26:16.152Z,3.85
2022-10-05T04:28:51.733Z,4.03
2022-10-05T04:31:35.368Z,3.70
2022-10-05T04:34:08.900Z,3.78
2022-10-05T04:36:47.395Z,4.55
2022-10-05T04:39:25.147Z,3.83
2022-10-05T04:42:07.690Z,3.78
2022-10-05T04:44:50.118Z,4.25
2022-10-05T04:47:41.702Z,4.60
2022-10-05T04:50:23.734Z,3.90
2022-10-05T04:53:03.737Z,4.13
2022-10-05T04:55:39.462Z,5.07
2022-10-05T04:58:21.152Z,5.10
2022-10-05T05:01:01.182Z,5.18
2022-10-05T05:03:51.631Z,5.40
2022-10-05T05:06:31.999Z,4.60
2022-10-05T05:09:25.986Z,5.13
2022-10-05T05:12:05.176Z,5.72
2022-10-05T05:15:06.338Z,5.32
2022-10-05T05:17:52.904Z,5.65
2022-10-05T05:20:28.968Z,5.63
2022-10-05T05:23:07.709Z,5.05
2022-10-05T05:25:49.871Z,5.57
2022-10-05T05:28:25.475Z,5.53
2022-10-05T05:31:02.306Z,5.40
2022-10-05T05:33:40.409Z,5.97
2022-10-05T05:36:23.405Z,6.13
2022-10-05T05:39:08.675Z,5.88
2022-10-05T05:41:40.822Z,6.10
2022-10-05T05:44:23.012Z,5.72
2022-10-05T05:47:03.875Z,5.63
2022-10-05T05:50:06.998Z,6.30
2022-10-05T05:52:40.882Z,5.55
2022-10-05T05:55:18.245Z,4.95
2022-10-05T05:57:52.289Z,6.20
2022-10-05T06:00:23.615Z,5.40
2022-10-05T06:02:58.627Z,5.75
2022-10-05T06:05:32.774Z,5.07
2022-10-05T06:08:08.704Z,5.40
2022-10-05T06:10:44.920Z,5.35
2022-10-05T06:13:19.579Z,4.93
2022-10-05T06:15:54.338Z,4.60
2022-10-05T06:18:24.965Z,5.00
2022-10-05T06:20:59.250Z,4.43
2022-10-05T06:23:36.002Z,5.70
2022-10-05T06:26:19.071Z,5.45
2022-10-05T06:28:56.535Z,7.30
2022-10-05T06:31:57.901Z,4.03
2022-10-05T06:34:41.980Z,4.28
2022-10-05T06:37:17.591Z,5.27
2022-10-05T06:40:02.013Z,4.43
2022-10-05T06:42:49.567Z,4.57
2022-10-05T06:45:28.276Z,4.97
2022-10-05T06:48:05.510Z,5.40
2022-10-05T06:50:40.039Z,5.20
2022-10-05T06:53:21.506Z,5.03
2022-10-05T06:55:57.852Z,4.57
2022-10-05T06:58:45.816Z,4.18
2022-10-05T07:01:29.929Z,4.80
2022-10-05T07:04:23.680Z,5.00
2022-10-05T07:06:57.036Z,4.18
2022-10-05T07:09:36.193Z,4.20
2022-10-05T07:12:22.819Z,4.18
2022-10-05T07:15:04.426Z,6.68
2022-10-05T07:17:51.285Z,3.80
2022-10-05T07:20:28.059Z,3.20
2022-10-05T07:23:14.936Z,3.08
2022-10-05T07:25:51.439Z,2.90
2022-10-05T07:28:29.485Z,2.85
2022-10-05T07:31:02.009Z,3.10
2022-10-05T07:33:41.538Z,2.40
2022-10-05T07:36:34.521Z,2.65
2022-10-05T07:39:07.548Z,3.17
2022-10-05T07:41:43.792Z,2.60
2022-10-05T07:44:17.347Z,3.17
2022-10-05T07:46:53.090Z,3.38
2022-10-05T07:49:34.784Z,3.08
2022-10-05T07:52:08.086Z,2.97
2022-10-05T07:54:45.995Z,3.53
2022-10-05T07:57:23.754Z,3.42
2022-10-05T08:00:02.037Z,3.38
2022-10-05T08:02:36.709Z,4.30
2022-10-05T08:05:14.111Z,4.72
2022-10-05T08:07:43.110Z,4.65
2022-10-05T08:10:28.288Z,4.55
2022-10-05T08:13:04.485Z,3.97
2022-10-05T08:15:38.814Z,4.40
2022-10-05T08:18:15.774Z,4.60
2022-10-05T08:20:50.000Z,5.60
2022-10-05T08:23:25.298Z,4.60
2022-10-05T08:26:06.824Z,4.50
2022-10-05T08:28:38.713Z,4.30
2022-10-05T08:31:18.701Z,3.90
2022-10-05T08:33:55.531Z,5.03
2022-10-05T08:36:43.704Z,4.25
2022-10-05T08:39:18.471Z,4.30
2022-10-05T08:42:13.355Z,4.03
2022-10-05T08:45:12.165Z,4.13
2022-10-05T08:48:06.519Z,4.15
2022-10-05T08:53:37.201Z,4.40
2022-10-05T08:56:30.766Z,4.85
2022-10-05T08:59:27.220Z,4.45
2022-10-05T09:02:15.651Z,5.10
2022-10-05T09:05:19.383Z,5.38
2022-10-05T09:08:40.946Z,5.60
2022-10-05T09:11:16.844Z,5.47
2022-10-05T09:14:11.730Z,5.47
2022-10-05T09:17:17.102Z,5.13
2022-10-05T09:20:19.138Z,4.78
2022-10-05T09:23:14.527Z,4.65
2022-10-05T09:25:57.667Z,4.63
2022-10-05T09:28:32.687Z,4.67
2022-10-05T09:31:27.080Z,4.30
2022-10-05T09:37:32.038Z,4.82
2022-10-05T09:40:45.258Z,3.50
2022-10-05T09:43:56.442Z,3.17
2022-10-05T09:46:50.020Z,3.47
2022-10-05T09:49:56.154Z,3.13
2022-10-05T09:52:50.570Z,3.08
2022-10-05T09:55:56.849Z,3.08
2022-10-05T09:58:51.145Z,2.75
2022-10-05T10:04:22.417Z,2.40
2022-10-05T10:07:26.055Z,2.47
2022-10-05T10:10:30.574Z,2.27
2022-10-05T10:16:06.026Z,2.17
2022-10-05T10:19:04.075Z,2.08
2022-10-05T10:22:03.167Z,2.30
2022-10-05T10:24:59.787Z,2.00
2022-10-05T10:27:49.159Z,2.35
2022-10-05T10:30:42.945Z,1.92
2022-10-05T10:33:34.399Z,2.08
2022-10-05T10:36:13.225Z,2.60
2022-10-05T10:38:52.875Z,1.83
2022-10-05T10:42:01.623Z,2.42
2022-10-05T10:45:14.153Z,2.10
2022-10-05T10:48:00.458Z,2.03
2022-10-05T10:51:01.897Z,2.10
2022-10-05T10:54:12.683Z,2.30
2022-10-05T10:56:52.280Z,2.05
2022-10-05T11:00:02.446Z,1.88
2022-10-05T11:02:53.126Z,2.10
2022-10-05T11:05:34.637Z,2.00
2022-10-05T11:08:38.299Z,2.13
2022-10-05T11:11:25.408Z,1.80
2022-10-05T11:14:06.443Z,1.83
2022-10-05T11:17:22.946Z,2.17
2022-10-05T11:20:05.196Z,2.40
2022-10-05T11:22:51.663Z,2.22
2022-10-05T11:25:44.552Z,2.17
2022-10-05T11:28:30.821Z,2.20
2022-10-05T11:31:19.653Z,1.98
2022-10-05T11:34:30.927Z,2.20
2022-10-05T11:37:29.519Z,1.80
2022-10-05T11:40:19.058Z,1.70
2022-10-05T11:43:22.395Z,1.80
2022-10-05T11:46:07.773Z,1.70
2022-10-05T11:49:00.513Z,1.90
2022-10-05T11:51:40.483Z,2.00
2022-10-05T11:54:58.463Z,1.92
2022-10-05T11:57:34.414Z,1.77
2022-10-05T12:00:13.190Z,2.00
2022-10-05T12:03:05.188Z,1.83
2022-10-05T12:05:42.647Z,1.88
2022-10-05T12:08:24.158Z,1.73
2022-10-05T12:11:04.193Z,1.55
2022-10-05T12:13:41.791Z,1.70
2022-10-05T12:16:16.340Z,1.58
2022-10-05T12:18:54.775Z,1.75
2022-10-05T12:21:33.357Z,1.73
2022-10-05T12:24:07.231Z,1.70
2022-10-05T12:26:40.733Z,1.60
2022-10-05T12:29:18.120Z,1.98
2022-10-05T12:31:57.042Z,1.70
2022-10-05T12:34:44.954Z,1.55
2022-10-05T12:37:38.755Z,1.70
2022-10-05T12:40:19.183Z,1.50
2022-10-05T12:42:56.162Z,1.60
2022-10-05T12:45:33.010Z,1.90
2022-10-05T12:48:18.992Z,1.70
2022-10-05T12:50:51.975Z,1.80
2022-10-05T12:53:37.590Z,1.58
2022-10-05T12:56:11.933Z,2.05
2022-10-05T12:58:53.190Z,1.50
2022-10-05T13:01:34.382Z,1.67
2022-10-05T13:04:18.912Z,1.88
2022-10-05T13:06:58.007Z,1.90
2022-10-05T13:09:33.523Z,1.50
2022-10-05T13:12:08.942Z,2.00
2022-10-05T13:14:50.304Z,1.80
2022-10-05T13:17:25.658Z,1.75
2022-10-05T13:20:00.424Z,1.55
2022-10-05T13:22:45.355Z,1.60
2022-10-05T13:25:24.030Z,1.83
2022-10-05T13:28:14.983Z,2.47
2022-10-05T13:30:52.149Z,2.80
2022-10-05T13:33:31.368Z,2.15
2022-10-05T13:36:06.631Z,2.33
2022-10-05T13:38:49.876Z,2.47
2022-10-05T13:41:29.252Z,2.70
2022-10-05T13:44:13.515Z,2.40
2022-10-05T13:46:49.493Z,2.55
2022-10-05T13:49:29.062Z,2.20
2022-10-05T13:52:07.753Z,2.80
2022-10-05T13:54:47.202Z,2.90
2022-10-05T13:57:26.891Z,2.60
2022-10-05T13:59:59.021Z,2.58
2022-10-05T14:02:31.052Z,2.15
2022-10-05T14:05:04.635Z,2.45
2022-10-05T14:07:38.917Z,2.22
2022-10-05T14:10:15.101Z,2.22
2022-10-05T14:12:45.944Z,2.90
2022-10-05T14:15:22.773Z,2.60
2022-10-05T14:17:52.869Z,2.50
2022-10-05T14:20:25.228Z,2.45
2022-10-05T14:22:59.063Z,2.20
2022-10-05T14:25:30.142Z,2.25
2022-10-05T14:28:04.057Z,1.88
2022-10-05T14:30:34.016Z,2.00
2022-10-05T14:33:16.820Z,2.40
2022-10-05T14:35:50.982Z,2.08
2022-10-05T14:38:21.655Z,2.20
2022-10-05T14:41:16.971Z,2.20
2022-10-05T14:43:56.054Z,1.90
2022-10-05T14:46:28.360Z,2.00
2022-10-05T14:49:14.515Z,1.90
2022-10-05T14:51:43.928Z,2.08
2022-10-05T14:54:30.079Z,2.00
2022-10-05T14:57:07.692Z,1.80
2022-10-05T15:00:02.559Z,2.10
2022-10-05T15:03:15.089Z,2.13
2022-10-05T15:05:49.451Z,2.03
2022-10-05T15:08:42.844Z,2.03
2022-10-05T15:11:20.152Z,2.40
2022-10-05T15:13:50.251Z,2.20
2022-10-05T15:16:22.425Z,2.25
2022-10-05T15:18:58.065Z,2.72
2022-10-05T15:21:40.751Z,2.40
2022-10-05T15:24:17.381Z,2.10
2022-10-05T15:26:51.736Z,2.10
2022-10-05T15:29:47.298Z,2.92
2022-10-05T15:32:29.351Z,2.20
2022-10-05T15:35:14.731Z,8.52
2022-10-05T15:37:47.573Z,3.67
2022-10-05T15:40:23.620Z,2.10
2022-10-05T15:42:56.997Z,2.92
2022-10-05T15:45:32.472Z,2.47
2022-10-05T15:48:04.463Z,2.55
2022-10-05T15:50:38.873Z,2.33
2022-10-05T15:53:15.895Z,2.50
2022-10-05T15:55:51.541Z,2.55
2022-10-05T15:58:35.832Z,2.15
2022-10-05T16:01:11.770Z,2.45
2022-10-05T16:03:49.318Z,2.35
2022-10-05T16:06:49.633Z,2.10
2022-10-05T16:09:35.858Z,2.20
2022-10-05T16:12:15.703Z,1.92
2022-10-05T16:15:00.155Z,2.47
2022-10-05T16:17:48.206Z,2.00
2022-10-05T16:20:31.456Z,2.45
2022-10-05T16:23:06.694Z,2.42
2022-10-05T16:25:51.846Z,2.03
2022-10-05T16:28:31.178Z,2.60
2022-10-05T16:31:06.883Z,3.08
2022-10-05T16:33:54.555Z,2.70
2022-10-05T16:36:36.312Z,2.58
2022-10-05T16:39:13.210Z,2.85
2022-10-05T16:41:50.335Z,3.08
2022-10-05T16:44:30.351Z,3.88
2022-10-05T16:47:04.844Z,3.05
2022-10-05T16:49:45.435Z,2.30
2022-10-05T16:52:19.086Z,2.20
2022-10-05T16:57:22.750Z,3.63
2022-10-05T17:00:19.082Z,2.58
2022-10-05T17:03:01.868Z,2.58
2022-10-05T17:05:44.358Z,2.63
2022-10-05T17:08:36.960Z,2.67
2022-10-05T17:11:17.039Z,2.75
2022-10-05T17:14:17.337Z,2.30
2022-10-05T17:17:05.781Z,2.72
2022-10-05T17:19:56.219Z,2.72
2022-10-05T17:22:32.014Z,2.72
2022-10-05T17:25:09.079Z,7.15
2022-10-05T17:27:53.811Z,8.20
2022-10-05T17:30:36.304Z,3.03
2022-10-05T17:33:23.573Z,2.38
2022-10-05T17:35:57.063Z,2.65
2022-10-05T17:38:47.563Z,2.90
2022-10-05T17:41:19.233Z,3.05
2022-10-05T17:44:24.656Z,2.88
2022-10-05T17:46:55.542Z,2.40
2022-10-05T17:50:15.101Z,2.88
2022-10-05T17:53:02.625Z,2.83
2022-10-05T17:56:03.542Z,3.00
2022-10-05T17:59:00.864Z,3.28
2022-10-05T18:01:31.796Z,2.75
2022-10-05T18:04:34.629Z,3.45
2022-10-05T18:07:06.704Z,2.80
2022-10-05T18:09:39.492Z,2.85
2022-10-05T18:12:40.894Z,2.97
2022-10-05T18:15:49.058Z,3.25
2022-10-05T18:18:50.479Z,9.50
2022-10-05T18:21:34.474Z,3.15
2022-10-05T18:26:45.160Z,3.58
2022-10-05T18:29:43.787Z,3.03
2022-10-05T18:32:26.691Z,3.22
2022-10-05T18:35:02.288Z,3.00
2022-10-05T18:37:50.234Z,3.33
2022-10-05T18:40:34.532Z,3.15
2022-10-05T18:43:17.226Z,2.72
2022-10-05T18:46:01.203Z,2.72
2022-10-05T18:48:36.091Z,2.87
2022-10-05T18:51:16.923Z,2.83
2022-10-05T18:53:58.435Z,2.97
2022-10-05T18:56:35.405Z,3.00
2022-10-05T18:59:20.171Z,3.00
2022-10-05T19:02:03.350Z,2.90
2022-10-05T19:04:46.671Z,2.63
2022-10-05T19:07:26.177Z,3.20
2022-10-05T19:10:14.070Z,2.88
2022-10-05T19:12:55.511Z,4.78
2022-10-05T19:15:30.532Z,3.08
2022-10-05T19:18:25.904Z,3.10
2022-10-05T19:21:03.608Z,3.15
2022-10-05T19:23:52.478Z,2.60
2022-10-05T19:26:36.928Z,3.03
2022-10-05T19:29:14.351Z,3.25
2022-10-05T19:31:49.649Z,3.00
2022-10-05T19:34:35.852Z,3.00
2022-10-05T19:37:10.577Z,2.70
2022-10-05T19:39:47.542Z,3.30
2022-10-05T19:42:42.223Z,2.85
2022-10-05T19:45:20.911Z,2.53
2022-10-05T19:48:05.435Z,2.90
2022-10-05T19:50:39.001Z,2.70
2022-10-05T19:53:16.546Z,3.00
2022-10-05T19:55:47.969Z,2.90
2022-10-05T19:58:22.809Z,3.42
2022-10-05T20:01:03.120Z,2.70
2022-10-05T20:03:35.957Z,2.58
2022-10-05T20:06:10.225Z,2.90
2022-10-05T20:08:42.515Z,2.22
2022-10-05T20:11:15.188Z,2.78
2022-10-05T20:13:46.777Z,2.72
2022-10-05T20:16:47.180Z,2.45
2022-10-05T20:19:54.393Z,2.40
2022-10-05T20:22:46.988Z,2.17
2022-10-05T20:25:33.038Z,2.30
2022-10-05T20:28:03.472Z,2.28
2022-10-05T20:30:35.448Z,2.28
2022-10-05T20:33:10.879Z,2.20
2022-10-05T20:35:39.326Z,2.30
2022-10-05T20:38:09.090Z,2.65
2022-10-05T20:40:37.403Z,2.03
2022-10-05T20:43:05.725Z,2.42
2022-10-05T20:45:34.176Z,2.28
2022-10-05T20:48:03.826Z,2.70
2022-10-05T20:50:32.893Z,2.30
2022-10-05T20:53:01.565Z,2.28
2022-10-05T20:55:32.320Z,2.13
2022-10-05T20:58:00.835Z,2.35
2022-10-05T21:00:50.961Z,2.15
2022-10-05T21:03:19.500Z,2.15
2022-10-05T21:05:48.639Z,2.20
2022-10-05T21:08:18.006Z,2.35
2022-10-05T21:10:47.790Z,2.28
2022-10-05T21:13:16.160Z,2.10
2022-10-05T21:15:45.075Z,2.00
2022-10-05T21:18:13.448Z,2.08
2022-10-05T21:20:42.006Z,2.28
2022-10-05T21:23:12.484Z,2.13
2022-10-05T21:25:40.816Z,2.00
2022-10-05T21:28:10.916Z,1.77
2022-10-05T21:30:39.262Z,2.05
2022-10-05T21:33:07.703Z,1.80
2022-10-05T21:35:36.256Z,2.40
2022-10-05T21:38:05.020Z,2.00
2022-10-05T21:40:33.551Z,2.20
2022-10-05T21:43:02.778Z,2.35
2022-10-05T21:45:32.809Z,1.90
2022-10-05T21:48:01.718Z,1.80
2022-10-05T21:50:30.435Z,2.05
2022-10-05T21:53:00.864Z,1.73
2022-10-05T21:55:29.472Z,1.77
2022-10-05T21:57:59.195Z,1.92
2022-10-05T22:00:27.626Z,1.80
2022-10-05T22:02:57.392Z,1.70
2022-10-05T22:05:25.836Z,1.80
2022-10-05T22:07:55.104Z,1.75
2022-10-05T22:10:23.596Z,2.00
2022-10-05T22:12:51.967Z,1.75
2022-10-05T22:15:20.648Z,2.33
2022-10-05T22:17:49.318Z,2.13
2022-10-05T22:20:20.497Z,1.85
2022-10-05T22:22:48.915Z,1.77
2022-10-05T22:25:17.371Z,1.80
2022-10-05T22:27:46.326Z,1.90
2022-10-05T22:30:15.768Z,1.85
2022-10-05T22:32:44.252Z,2.13
2022-10-05T22:35:12.649Z,1.83
2022-10-05T22:37:42.516Z,2.17
2022-10-05T22:40:12.054Z,1.73
2022-10-05T22:42:41.628Z,1.98
2022-10-05T22:45:11.012Z,2.10
2022-10-05T22:47:39.371Z,1.70
2022-10-05T22:50:09.573Z,2.17
2022-10-05T22:52:38.142Z,1.92
2022-10-05T22:55:09.371Z,1.75
2022-10-05T22:57:41.108Z,2.00
2022-10-05T23:00:11.743Z,1.80
2022-10-05T23:02:40.937Z,1.98
2022-10-05T23:05:13.370Z,1.83
2022-10-05T23:07:43.579Z,1.70
2022-10-05T23:10:16.290Z,1.67
2022-10-05T23:12:44.770Z,1.80
2022-10-05T23:15:13.571Z,2.03
2022-10-05T23:17:41.890Z,2.42
2022-10-05T23:20:11.223Z,2.22
2022-10-05T23:22:40.663Z,1.90
2022-10-05T23:25:10.275Z,1.80
2022-10-05T23:27:41.563Z,2.00
2022-10-05T23:30:12.242Z,2.13
2022-10-05T23:32:41.331Z,1.80
2022-10-05T23:35:11.186Z,1.90
2022-10-05T23:37:40.080Z,2.08
2022-10-05T23:40:12.396Z,1.90
2022-10-05T23:42:43.200Z,1.80
2022-10-05T23:45:13.438Z,2.00
2022-10-05T23:47:42.115Z,1.92
2022-10-05T23:50:11.334Z,1.80
2022-10-05T23:52:39.683Z,1.83
2022-10-05T23:55:08.842Z,2.00
2022-10-05T23:57:38.463Z,1.67
